PWSweather.com
Personal Weather Stations
Station Observations
PICKERING
North Yorkshire, PickeringGB

North YorkshirePickeringGB

Lat: 54.2494, Lon: -0.7725

Elevation: 192

Station Type: Oregon Scientific WMR100

http://www.yorkshirewalker.co.uk/weather/

Latest ConditionsUpdated 9:20:01 PM GMT Thursday, Sep 21, 2017
Currently Today's Max Today's Min Today's Average
Temperature 50.7°F10.4°C 61.9°F16.6°C 50.7°F10.4°C 57.9°F14.4°C
Dew Point 42.8°F6.0°C 53.6°F12.0°C 42.8°F6.0°C 49.0°F9.4°C
Winds 0.4 mph WSW0.6 kmh WSW 7.1 mph SSW11.4 kmh SSW - 3.0 mph 4.8 kmh
Wind Gusts 1.3 mph2.1 kmh 13.2 mph21.2 kmh - -
Humidity 71% 76% 62% 71%
Pressure 29.98 in1015.2 mb 29.98 in1015.2 mb 29.80 in1009.1 mb -
Precipitation - 0.13 in3.3 mm - -
Hour Temp Dew Point Humidity Winds Wind Gusts Pressure Precip Precip Rate Daily Precip Total
09:20 PM 50.7°F10.4°C 42.8°F6.0°C 71% 0.4 mph WSW0.6 kmh WSW 1.3 mph2.1 kmh 29.98 in1015.2 mb 0.00 in0.0 mm 0.00 in0.0 mm 0.13 in3.3 mm
09:15 PM 50.9°F10.5°C 42.8°F6.0°C 70% 0.3 mph WSW0.5 kmh WSW 0.9 mph1.4 kmh 29.98 in1015.2 mb 0.00 in0.0 mm 0.00 in0.0 mm 0.13 in3.3 mm
09:10 PM 51.3°F10.7°C 42.8°F6.0°C 70% 0.1 mph W0.2 kmh W 0.9 mph1.4 kmh 29.98 in1015.2 mb 0.00 in0.0 mm 0.00 in0.0 mm 0.13 in3.3 mm
09:05 PM 51.4°F10.8°C 42.8°F6.0°C 70% Calm Calm -- 29.98 in1015.2 mb 0.00 in0.0 mm 0.00 in0.0 mm 0.13 in3.3 mm
09:00 PM 51.4°F10.8°C 42.8°F6.0°C 71% Calm Calm -- 29.98 in1015.2 mb 0.00 in0.0 mm 0.00 in0.0 mm 0.13 in3.3 mm
08:55 PM 51.6°F10.9°C 42.8°F6.0°C 71% 0.2 mph W0.3 kmh W 1.6 mph2.6 kmh 29.98 in1015.2 mb 0.00 in0.0 mm 0.00 in0.0 mm 0.13 in3.3 mm
08:50 PM 51.8°F11.0°C 42.8°F6.0°C 71% 0.8 mph WSW1.3 kmh WSW 2.7 mph4.3 kmh 29.98 in1015.2 mb 0.00 in0.0 mm 0.00 in0.0 mm 0.13 in3.3 mm
08:45 PM 51.8°F11.0°C 42.8°F6.0°C 72% 1.0 mph WSW1.6 kmh WSW 2.7 mph4.3 kmh 29.98 in1015.2 mb 0.00 in0.0 mm 0.00 in0.0 mm 0.13 in3.3 mm
08:40 PM 52.0°F11.1°C 42.8°F6.0°C 70% 0.4 mph WSW0.6 kmh WSW 1.6 mph2.6 kmh 29.98 in1015.2 mb 0.00 in0.0 mm 0.00 in0.0 mm 0.13 in3.3 mm
08:35 PM 52.2°F11.2°C 42.8°F6.0°C 70% 0.1 mph WSW0.2 kmh WSW 0.9 mph1.4 kmh 29.98 in1015.2 mb 0.00 in0.0 mm 0.00 in0.0 mm 0.13 in3.3 mm
08:30 PM 52.2°F11.2°C 42.8°F6.0°C 70% 0.1 mph WSW0.2 kmh WSW 0.9 mph1.4 kmh 29.95 in1014.2 mb 0.00 in0.0 mm 0.00 in0.0 mm 0.13 in3.3 mm
08:25 PM 52.5°F11.4°C 42.8°F6.0°C 70% Calm Calm -- 29.95 in1014.2 mb 0.00 in0.0 mm 0.00 in0.0 mm 0.13 in3.3 mm
08:20 PM 52.7°F11.5°C 42.8°F6.0°C 70% 0.3 mph SW0.5 kmh SW 1.6 mph2.6 kmh 29.95 in1014.2 mb 0.00 in0.0 mm 0.00 in0.0 mm 0.13 in3.3 mm
08:15 PM 52.7°F11.5°C 44.6°F7.0°C 71% 0.8 mph WSW1.3 kmh WSW 1.6 mph2.6 kmh 29.95 in1014.2 mb 0.00 in0.0 mm 0.00 in0.0 mm 0.13 in3.3 mm
08:10 PM 52.9°F11.6°C 44.6°F7.0°C 71% 0.9 mph WSW1.4 kmh WSW 1.6 mph2.6 kmh 29.95 in1014.2 mb 0.00 in0.0 mm 0.00 in0.0 mm 0.13 in3.3 mm
08:05 PM 52.9°F11.6°C 42.8°F6.0°C 70% 0.6 mph W1.0 kmh W 1.6 mph2.6 kmh 29.95 in1014.2 mb 0.00 in0.0 mm 0.00 in0.0 mm 0.13 in3.3 mm
08:00 PM 53.1°F11.7°C 42.8°F6.0°C 70% 0.4 mph W0.6 kmh W 1.1 mph1.8 kmh 29.95 in1014.2 mb 0.00 in0.0 mm 0.00 in0.0 mm 0.13 in3.3 mm
07:55 PM 53.1°F11.7°C 42.8°F6.0°C 70% 0.4 mph W0.6 kmh W 1.3 mph2.1 kmh 29.95 in1014.2 mb 0.00 in0.0 mm 0.00 in0.0 mm 0.13 in3.3 mm
07:50 PM 53.2°F11.8°C 42.8°F6.0°C 70% 0.9 mph WSW1.4 kmh WSW 2.5 mph4.0 kmh 29.95 in1014.2 mb 0.00 in0.0 mm 0.00 in0.0 mm 0.13 in3.3 mm
07:45 PM 53.1°F11.7°C 44.6°F7.0°C 71% 1.5 mph WSW2.4 kmh WSW 2.7 mph4.3 kmh 29.95 in1014.2 mb 0.00 in0.0 mm 0.00 in0.0 mm 0.13 in3.3 mm
07:40 PM 53.2°F11.8°C 42.8°F6.0°C 70% 1.8 mph WSW2.9 kmh WSW 2.9 mph4.7 kmh 29.95 in1014.2 mb 0.00 in0.0 mm 0.00 in0.0 mm 0.13 in3.3 mm
07:35 PM 53.4°F11.9°C 44.6°F7.0°C 70% 1.6 mph WSW2.6 kmh WSW 2.9 mph4.7 kmh 29.95 in1014.2 mb 0.00 in0.0 mm 0.00 in0.0 mm 0.13 in3.3 mm
07:30 PM 53.6°F12.0°C 44.6°F7.0°C 69% 1.4 mph W2.3 kmh W 2.5 mph4.0 kmh 29.95 in1014.2 mb 0.00 in0.0 mm 0.00 in0.0 mm 0.13 in3.3 mm
07:25 PM 54.0°F12.2°C 44.6°F7.0°C 69% 1.6 mph WSW2.6 kmh WSW 2.5 mph4.0 kmh 29.95 in1014.2 mb 0.00 in0.0 mm 0.00 in0.0 mm 0.13 in3.3 mm
07:20 PM 54.1°F12.3°C 44.6°F7.0°C 69% 1.9 mph WSW3.1 kmh WSW 3.4 mph5.5 kmh 29.95 in1014.2 mb 0.00 in0.0 mm 0.00 in0.0 mm 0.13 in3.3 mm
07:15 PM 54.3°F12.4°C 44.6°F7.0°C 68% 2.2 mph WSW3.5 kmh WSW 3.4 mph5.5 kmh 29.92 in1013.2 mb 0.00 in0.0 mm 0.00 in0.0 mm 0.13 in3.3 mm
07:10 PM 54.5°F12.5°C 44.6°F7.0°C 69% 2.7 mph W4.3 kmh W 4.0 mph6.4 kmh 29.92 in1013.2 mb 0.00 in0.0 mm 0.00 in0.0 mm 0.13 in3.3 mm
07:05 PM 54.7°F12.6°C 44.6°F7.0°C 69% 2.4 mph W3.9 kmh W 4.0 mph6.4 kmh 29.92 in1013.2 mb 0.00 in0.0 mm 0.00 in0.0 mm 0.13 in3.3 mm
07:00 PM 54.9°F12.7°C 44.6°F7.0°C 69% 1.6 mph W2.6 kmh W 3.4 mph5.5 kmh 29.92 in1013.2 mb 0.00 in0.0 mm 0.00 in0.0 mm 0.13 in3.3 mm
06:55 PM 54.9°F12.7°C 44.6°F7.0°C 69% 1.9 mph WSW3.1 kmh WSW 3.6 mph5.8 kmh 29.92 in1013.2 mb 0.00 in0.0 mm 0.00 in0.0 mm 0.13 in3.3 mm
06:50 PM 55.0°F12.8°C 46.4°F8.0°C 69% 2.1 mph WSW3.4 kmh WSW 3.6 mph5.8 kmh 29.92 in1013.2 mb 0.00 in0.0 mm 0.00 in0.0 mm 0.13 in3.3 mm
06:45 PM 55.2°F12.9°C 46.4°F8.0°C 69% 1.4 mph WSW2.3 kmh WSW 2.7 mph4.3 kmh 29.92 in1013.2 mb 0.00 in0.0 mm 0.00 in0.0 mm 0.13 in3.3 mm
06:40 PM 55.4°F13.0°C 46.4°F8.0°C 69% 1.5 mph WSW2.4 kmh WSW 2.9 mph4.7 kmh 29.92 in1013.2 mb 0.00 in0.0 mm 0.00 in0.0 mm 0.13 in3.3 mm
06:35 PM 55.8°F13.2°C 46.4°F8.0°C 68% 2.1 mph WSW3.4 kmh WSW 3.4 mph5.5 kmh 29.92 in1013.2 mb 0.00 in0.0 mm 0.00 in0.0 mm 0.13 in3.3 mm
06:30 PM 55.9°F13.3°C 46.4°F8.0°C 68% 1.7 mph WSW2.7 kmh WSW 3.4 mph5.5 kmh 29.89 in1012.2 mb 0.00 in0.0 mm 0.00 in0.0 mm 0.13 in3.3 mm
06:25 PM 56.1°F13.4°C 46.4°F8.0°C 69% 1.5 mph WSW2.4 kmh WSW 3.4 mph5.5 kmh 29.89 in1012.2 mb 0.00 in0.0 mm 0.00 in0.0 mm 0.13 in3.3 mm
06:20 PM 56.1°F13.4°C 46.4°F8.0°C 69% 1.8 mph W2.9 kmh W 3.1 mph5.0 kmh 29.89 in1012.2 mb 0.00 in0.0 mm 0.00 in0.0 mm 0.13 in3.3 mm
06:15 PM 56.3°F13.5°C 46.4°F8.0°C 69% 1.6 mph W2.6 kmh W 3.1 mph5.0 kmh 29.89 in1012.2 mb 0.00 in0.0 mm 0.00 in0.0 mm 0.13 in3.3 mm
06:10 PM 56.7°F13.7°C 46.4°F8.0°C 69% 1.8 mph WSW2.9 kmh WSW 3.6 mph5.8 kmh 29.89 in1012.2 mb 0.00 in0.0 mm 0.00 in0.0 mm 0.13 in3.3 mm
06:05 PM 56.7°F13.7°C 46.4°F8.0°C 69% 2.2 mph WSW3.5 kmh WSW 4.0 mph6.4 kmh 29.89 in1012.2 mb 0.00 in0.0 mm 0.00 in0.0 mm 0.13 in3.3 mm
06:00 PM 56.7°F13.7°C 46.4°F8.0°C 68% 2.5 mph WSW4.0 kmh WSW 6.0 mph9.7 kmh 29.89 in1012.2 mb 0.00 in0.0 mm 0.00 in0.0 mm 0.13 in3.3 mm
05:55 PM 56.8°F13.8°C 46.4°F8.0°C 69% 3.0 mph WSW4.8 kmh WSW 6.0 mph9.7 kmh 29.89 in1012.2 mb 0.00 in0.0 mm 0.00 in0.0 mm 0.13 in3.3 mm
05:50 PM 56.8°F13.8°C 48.2°F9.0°C 70% 2.9 mph WSW4.7 kmh WSW 6.0 mph9.7 kmh 29.89 in1012.2 mb 0.00 in0.0 mm 0.00 in0.0 mm 0.13 in3.3 mm
05:45 PM 56.8°F13.8°C 48.2°F9.0°C 70% 2.6 mph WSW4.2 kmh WSW 3.8 mph6.1 kmh 29.89 in1012.2 mb 0.00 in0.0 mm 0.00 in0.0 mm 0.13 in3.3 mm
05:40 PM 57.0°F13.9°C 48.2°F9.0°C 71% 2.5 mph WSW4.0 kmh WSW 3.6 mph5.8 kmh 29.89 in1012.2 mb 0.00 in0.0 mm 0.00 in0.0 mm 0.13 in3.3 mm
05:35 PM 57.2°F14.0°C 48.2°F9.0°C 71% 2.1 mph WSW3.4 kmh WSW 3.6 mph5.8 kmh 29.89 in1012.2 mb 0.00 in0.0 mm 0.00 in0.0 mm 0.13 in3.3 mm
05:30 PM 57.4°F14.1°C 48.2°F9.0°C 72% 1.3 mph WSW2.1 kmh WSW 2.7 mph4.3 kmh 29.86 in1011.2 mb 0.00 in0.0 mm 0.00 in0.0 mm 0.13 in3.3 mm
05:25 PM 57.4°F14.1°C 48.2°F9.0°C 71% 0.9 mph WSW1.4 kmh WSW 2.0 mph3.2 kmh 29.86 in1011.2 mb 0.00 in0.0 mm 0.00 in0.0 mm 0.13 in3.3 mm
05:20 PM 57.6°F14.2°C 50.0°F10.0°C 72% 1.0 mph WSW1.6 kmh WSW 2.2 mph3.5 kmh 29.86 in1011.2 mb 0.00 in0.0 mm 0.00 in0.0 mm 0.13 in3.3 mm
05:15 PM 57.6°F14.2°C 48.2°F9.0°C 71% 1.4 mph SW2.3 kmh SW 2.9 mph4.7 kmh 29.86 in1011.2 mb 0.00 in0.0 mm 0.00 in0.0 mm 0.13 in3.3 mm
05:10 PM 57.6°F14.2°C 48.2°F9.0°C 71% 1.4 mph SW2.3 kmh SW 2.9 mph4.7 kmh 29.86 in1011.2 mb 0.00 in0.0 mm 0.00 in0.0 mm 0.13 in3.3 mm
05:05 PM 57.7°F14.3°C 48.2°F9.0°C 71% 0.9 mph SW1.4 kmh SW 3.1 mph5.0 kmh 29.86 in1011.2 mb 0.00 in0.0 mm 0.00 in0.0 mm 0.13 in3.3 mm
05:00 PM 57.9°F14.4°C 48.2°F9.0°C 71% 0.7 mph SW1.1 kmh SW 3.1 mph5.0 kmh 29.86 in1011.2 mb 0.00 in0.0 mm 0.00 in0.0 mm 0.13 in3.3 mm
04:55 PM 58.1°F14.5°C 50.0°F10.0°C 72% 0.7 mph SW1.1 kmh SW 3.1 mph5.0 kmh 29.86 in1011.2 mb 0.00 in0.0 mm 0.00 in0.0 mm 0.13 in3.3 mm
04:50 PM 58.1°F14.5°C 50.0°F10.0°C 72% 0.6 mph SW1.0 kmh SW 1.1 mph1.8 kmh 29.86 in1011.2 mb 0.00 in0.0 mm 0.00 in0.0 mm 0.13 in3.3 mm
04:45 PM 58.1°F14.5°C 50.0°F10.0°C 72% 0.3 mph SW0.5 kmh SW 1.1 mph1.8 kmh 29.86 in1011.2 mb 0.00 in0.0 mm 0.00 in0.0 mm 0.13 in3.3 mm
04:40 PM 58.1°F14.5°C 50.0°F10.0°C 72% 0.9 mph SW1.4 kmh SW 2.5 mph4.0 kmh 29.86 in1011.2 mb 0.00 in0.0 mm 0.00 in0.0 mm 0.13 in3.3 mm
04:35 PM 58.1°F14.5°C 50.0°F10.0°C 72% 1.5 mph SW2.4 kmh SW 2.5 mph4.0 kmh 29.86 in1011.2 mb 0.00 in0.0 mm 0.00 in0.0 mm 0.13 in3.3 mm
04:30 PM 58.1°F14.5°C 50.0°F10.0°C 72% 1.4 mph SW2.3 kmh SW 3.1 mph5.0 kmh 29.86 in1011.2 mb 0.00 in0.0 mm 0.00 in0.0 mm 0.13 in3.3 mm
04:25 PM 58.1°F14.5°C 50.0°F10.0°C 72% 1.8 mph WSW2.9 kmh WSW 3.6 mph5.8 kmh 29.86 in1011.2 mb 0.00 in0.0 mm 0.00 in0.0 mm 0.13 in3.3 mm
04:20 PM 58.3°F14.6°C 50.0°F10.0°C 72% 2.1 mph WSW3.4 kmh WSW 3.6 mph5.8 kmh 29.86 in1011.2 mb 0.00 in0.0 mm 0.00 in0.0 mm 0.13 in3.3 mm
04:15 PM 58.5°F14.7°C 50.0°F10.0°C 72% 1.9 mph WSW3.1 kmh WSW 2.9 mph4.7 kmh 29.83 in1010.2 mb 0.00 in0.0 mm 0.00 in0.0 mm 0.13 in3.3 mm
04:10 PM 58.5°F14.7°C 50.0°F10.0°C 72% 1.2 mph WSW1.9 kmh WSW 2.7 mph4.3 kmh 29.83 in1010.2 mb 0.00 in0.0 mm 0.00 in0.0 mm 0.13 in3.3 mm
04:05 PM 58.6°F14.8°C 50.0°F10.0°C 72% 0.7 mph W1.1 kmh W 2.0 mph3.2 kmh 29.83 in1010.2 mb 0.00 in0.0 mm 0.00 in0.0 mm 0.13 in3.3 mm
04:00 PM 58.6°F14.8°C 50.0°F10.0°C 71% 0.6 mph WNW1.0 kmh WNW 1.6 mph2.6 kmh 29.86 in1011.2 mb 0.00 in0.0 mm 0.00 in0.0 mm 0.13 in3.3 mm
03:55 PM 58.5°F14.7°C 50.0°F10.0°C 71% 2.1 mph WSW3.4 kmh WSW 4.0 mph6.4 kmh 29.86 in1011.2 mb 0.00 in0.0 mm 0.00 in0.0 mm 0.13 in3.3 mm
03:50 PM 58.5°F14.7°C 50.0°F10.0°C 71% 3.3 mph WSW5.3 kmh WSW 5.6 mph9.0 kmh 29.86 in1011.2 mb 0.00 in0.0 mm 0.00 in0.0 mm 0.13 in3.3 mm
03:45 PM 58.6°F14.8°C 50.0°F10.0°C 71% 3.5 mph SW5.6 kmh SW 6.5 mph10.5 kmh 29.83 in1010.2 mb 0.00 in0.0 mm 0.00 in0.0 mm 0.13 in3.3 mm
03:40 PM 58.8°F14.9°C 50.0°F10.0°C 71% 3.0 mph WSW4.8 kmh WSW 6.5 mph10.5 kmh 29.83 in1010.2 mb 0.00 in0.0 mm 0.00 in0.0 mm 0.13 in3.3 mm
03:35 PM 59.0°F15.0°C 50.0°F10.0°C 70% 3.0 mph WSW4.8 kmh WSW 5.4 mph8.7 kmh 29.83 in1010.2 mb 0.00 in0.0 mm 0.00 in0.0 mm 0.13 in3.3 mm
03:30 PM 59.0°F15.0°C 50.0°F10.0°C 71% 3.2 mph WSW5.1 kmh WSW 5.4 mph8.7 kmh 29.83 in1010.2 mb 0.00 in0.0 mm 0.00 in0.0 mm 0.13 in3.3 mm
03:25 PM 59.4°F15.2°C 51.8°F11.0°C 73% 2.4 mph W3.9 kmh W 4.3 mph6.9 kmh 29.83 in1010.2 mb 0.00 in0.0 mm 0.00 in0.0 mm 0.13 in3.3 mm
03:20 PM 59.5°F15.3°C 51.8°F11.0°C 74% 2.3 mph W3.7 kmh W 4.3 mph6.9 kmh 29.83 in1010.2 mb 0.00 in0.0 mm 0.00 in0.0 mm 0.13 in3.3 mm
03:15 PM 59.4°F15.2°C 51.8°F11.0°C 74% 2.9 mph WSW4.7 kmh WSW 4.9 mph7.9 kmh 29.83 in1010.2 mb 0.06 in1.5 mm 0.00 in0.0 mm 0.13 in3.3 mm
03:10 PM 59.5°F15.3°C 51.8°F11.0°C 75% 2.4 mph WSW3.9 kmh WSW 4.9 mph7.9 kmh 29.83 in1010.2 mb 0.06 in1.5 mm 0.00 in0.0 mm 0.13 in3.3 mm
03:05 PM 59.7°F15.4°C 51.8°F11.0°C 75% 1.8 mph WSW2.9 kmh WSW 3.6 mph5.8 kmh 29.83 in1010.2 mb 0.06 in1.5 mm 0.00 in0.0 mm 0.13 in3.3 mm
03:00 PM 59.5°F15.3°C 51.8°F11.0°C 75% 2.3 mph WSW3.7 kmh WSW 3.6 mph5.8 kmh 29.83 in1010.2 mb 0.06 in1.5 mm 0.00 in0.0 mm 0.13 in3.3 mm
02:55 PM 59.5°F15.3°C 51.8°F11.0°C 74% 2.4 mph WSW3.9 kmh WSW 4.3 mph6.9 kmh 29.83 in1010.2 mb 0.06 in1.5 mm 0.00 in0.0 mm 0.13 in3.3 mm
02:50 PM 59.7°F15.4°C 51.8°F11.0°C 74% 1.7 mph WSW2.7 kmh WSW 4.3 mph6.9 kmh 29.83 in1010.2 mb 0.06 in1.5 mm 0.00 in0.0 mm 0.13 in3.3 mm
02:45 PM 59.9°F15.5°C 51.8°F11.0°C 74% 1.6 mph WSW2.6 kmh WSW 3.8 mph6.1 kmh 29.83 in1010.2 mb 0.06 in1.5 mm 0.00 in0.0 mm 0.13 in3.3 mm
02:40 PM 59.7°F15.4°C 51.8°F11.0°C 75% 2.1 mph WSW3.4 kmh WSW 3.8 mph6.1 kmh 29.83 in1010.2 mb 0.06 in1.5 mm 0.00 in0.0 mm 0.13 in3.3 mm
02:35 PM 59.7°F15.4°C 51.8°F11.0°C 75% 3.1 mph W5.0 kmh W 7.4 mph11.9 kmh 29.83 in1010.2 mb 0.06 in1.5 mm 0.00 in0.0 mm 0.13 in3.3 mm
02:30 PM 59.9°F15.5°C 53.6°F12.0°C 75% 4.0 mph WSW6.4 kmh WSW 7.4 mph11.9 kmh 29.83 in1010.2 mb 0.06 in1.5 mm 0.00 in0.0 mm 0.13 in3.3 mm
02:25 PM 59.9°F15.5°C 53.6°F12.0°C 75% 3.4 mph SW5.5 kmh SW 6.3 mph10.1 kmh 29.83 in1010.2 mb 0.06 in1.5 mm 0.00 in0.0 mm 0.13 in3.3 mm
02:20 PM 60.1°F15.6°C 51.8°F11.0°C 74% 4.5 mph SW7.2 kmh SW 9.6 mph15.4 kmh 29.83 in1010.2 mb 0.06 in1.5 mm 0.72 in18.3 mm 0.13 in3.3 mm
02:15 PM 60.1°F15.6°C 51.8°F11.0°C 73% 5.6 mph SW9.0 kmh SW 9.6 mph15.4 kmh 29.80 in1009.1 mb 0.00 in0.0 mm 0.00 in0.0 mm 0.07 in1.8 mm
02:10 PM 60.4°F15.8°C 51.8°F11.0°C 72% 5.6 mph SW9.0 kmh SW 8.5 mph13.7 kmh 29.83 in1010.2 mb 0.00 in0.0 mm 0.00 in0.0 mm 0.07 in1.8 mm
02:05 PM 60.4°F15.8°C 51.8°F11.0°C 72% 5.4 mph SW8.7 kmh SW 8.5 mph13.7 kmh 29.83 in1010.2 mb 0.00 in0.0 mm 0.00 in0.0 mm 0.07 in1.8 mm
02:00 PM 60.6°F15.9°C 51.8°F11.0°C 71% 4.5 mph SSW7.2 kmh SSW 6.7 mph10.8 kmh 29.83 in1010.2 mb 0.00 in0.0 mm 0.00 in0.0 mm 0.07 in1.8 mm
01:55 PM 60.8°F16.0°C 50.0°F10.0°C 69% 4.0 mph SW6.4 kmh SW 7.2 mph11.6 kmh 29.83 in1010.2 mb 0.00 in0.0 mm 0.00 in0.0 mm 0.07 in1.8 mm
01:50 PM 61.0°F16.1°C 50.0°F10.0°C 68% 4.7 mph SW7.6 kmh SW 7.6 mph12.2 kmh 29.83 in1010.2 mb 0.00 in0.0 mm 0.00 in0.0 mm 0.07 in1.8 mm
01:45 PM 61.0°F16.1°C 50.0°F10.0°C 67% 5.3 mph SW8.5 kmh SW 7.6 mph12.2 kmh 29.83 in1010.2 mb 0.00 in0.0 mm 0.00 in0.0 mm 0.07 in1.8 mm
01:40 PM 61.0°F16.1°C 50.0°F10.0°C 66% 4.9 mph SW7.9 kmh SW 6.5 mph10.5 kmh 29.83 in1010.2 mb 0.00 in0.0 mm 0.00 in0.0 mm 0.07 in1.8 mm
01:35 PM 61.2°F16.2°C 50.0°F10.0°C 66% 5.0 mph SSW8.0 kmh SSW 10.1 mph16.3 kmh 29.83 in1010.2 mb 0.00 in0.0 mm 0.00 in0.0 mm 0.07 in1.8 mm
01:30 PM 61.3°F16.3°C 50.0°F10.0°C 65% 5.1 mph SSW8.2 kmh SSW 10.1 mph16.3 kmh 29.80 in1009.1 mb 0.00 in0.0 mm 0.00 in0.0 mm 0.07 in1.8 mm
01:25 PM 61.3°F16.3°C 50.0°F10.0°C 65% 4.9 mph SSW7.9 kmh SSW 7.8 mph12.6 kmh 29.80 in1009.1 mb 0.00 in0.0 mm 0.00 in0.0 mm 0.07 in1.8 mm
01:20 PM 61.5°F16.4°C 50.0°F10.0°C 65% 4.5 mph S7.2 kmh S 7.2 mph11.6 kmh 29.80 in1009.1 mb 0.00 in0.0 mm 0.00 in0.0 mm 0.07 in1.8 mm
01:15 PM 61.7°F16.5°C 50.0°F10.0°C 64% 4.2 mph S6.8 kmh S 6.5 mph10.5 kmh 29.80 in1009.1 mb 0.00 in0.0 mm 0.00 in0.0 mm 0.07 in1.8 mm
01:10 PM 61.7°F16.5°C 50.0°F10.0°C 64% 4.7 mph S7.6 kmh S 6.5 mph10.5 kmh 29.80 in1009.1 mb 0.00 in0.0 mm 0.00 in0.0 mm 0.07 in1.8 mm
01:05 PM 61.7°F16.5°C 48.2°F9.0°C 62% 5.6 mph S9.0 kmh S 8.7 mph14.0 kmh 29.80 in1009.1 mb 0.00 in0.0 mm 0.00 in0.0 mm 0.07 in1.8 mm
01:00 PM 61.7°F16.5°C 48.2°F9.0°C 62% 5.4 mph SSW8.7 kmh SSW 8.7 mph14.0 kmh 29.83 in1010.2 mb 0.00 in0.0 mm 0.00 in0.0 mm 0.07 in1.8 mm
12:55 PM 61.9°F16.6°C 50.0°F10.0°C 63% 5.2 mph SW8.4 kmh SW 7.8 mph12.6 kmh 29.83 in1010.2 mb 0.00 in0.0 mm 0.00 in0.0 mm 0.07 in1.8 mm
12:50 PM 61.9°F16.6°C 50.0°F10.0°C 63% 5.2 mph SSW8.4 kmh SSW 9.2 mph14.8 kmh 29.83 in1010.2 mb 0.00 in0.0 mm 0.00 in0.0 mm 0.07 in1.8 mm
12:45 PM 61.9°F16.6°C 50.0°F10.0°C 63% 5.8 mph SSW9.3 kmh SSW 9.4 mph15.1 kmh 29.80 in1009.1 mb 0.00 in0.0 mm 0.00 in0.0 mm 0.07 in1.8 mm
12:40 PM 61.9°F16.6°C 50.0°F10.0°C 63% 5.7 mph S9.2 kmh S 9.8 mph15.8 kmh 29.80 in1009.1 mb 0.00 in0.0 mm 0.00 in0.0 mm 0.07 in1.8 mm
12:35 PM 61.9°F16.6°C 50.0°F10.0°C 64% 5.1 mph SSW8.2 kmh SSW 9.8 mph15.8 kmh 29.80 in1009.1 mb 0.00 in0.0 mm 0.00 in0.0 mm 0.07 in1.8 mm
12:30 PM 61.9°F16.6°C 50.0°F10.0°C 64% 5.5 mph SW8.9 kmh SW 10.3 mph16.6 kmh 29.80 in1009.1 mb 0.00 in0.0 mm 0.00 in0.0 mm 0.07 in1.8 mm
12:25 PM 61.9°F16.6°C 50.0°F10.0°C 63% 7.1 mph SSW11.4 kmh SSW 13.2 mph21.2 kmh 29.80 in1009.1 mb 0.00 in0.0 mm 0.00 in0.0 mm 0.07 in1.8 mm
12:20 PM 61.9°F16.6°C 50.0°F10.0°C 63% 7.0 mph S11.3 kmh S 13.2 mph21.2 kmh 29.80 in1009.1 mb 0.00 in0.0 mm 0.00 in0.0 mm 0.07 in1.8 mm
12:15 PM 61.9°F16.6°C 50.0°F10.0°C 64% 6.4 mph SSW10.3 kmh SSW 11.0 mph17.7 kmh 29.80 in1009.1 mb 0.00 in0.0 mm 0.00 in0.0 mm 0.07 in1.8 mm
12:10 PM 61.9°F16.6°C 50.0°F10.0°C 64% 6.7 mph SSW10.8 kmh SSW 11.0 mph17.7 kmh 29.80 in1009.1 mb 0.00 in0.0 mm 0.00 in0.0 mm 0.07 in1.8 mm
12:05 PM 61.9°F16.6°C 50.0°F10.0°C 65% 6.3 mph S10.1 kmh S 9.8 mph15.8 kmh 29.80 in1009.1 mb 0.00 in0.0 mm 0.00 in0.0 mm 0.07 in1.8 mm
12:00 PM 61.7°F16.5°C 50.0°F10.0°C 66% 5.8 mph SSW9.3 kmh SSW 8.1 mph13.0 kmh 29.80 in1009.1 mb 0.00 in0.0 mm 0.00 in0.0 mm 0.07 in1.8 mm
11:55 AM 61.7°F16.5°C 50.0°F10.0°C 66% 6.2 mph SSW10.0 kmh SSW 8.7 mph14.0 kmh 29.80 in1009.1 mb 0.00 in0.0 mm 0.00 in0.0 mm 0.07 in1.8 mm
11:50 AM 61.3°F16.3°C 50.0°F10.0°C 67% 6.6 mph SSW10.6 kmh SSW 9.6 mph15.4 kmh 29.80 in1009.1 mb 0.00 in0.0 mm 0.00 in0.0 mm 0.07 in1.8 mm
11:45 AM 61.3°F16.3°C 50.0°F10.0°C 67% 6.2 mph SSW10.0 kmh SSW 9.6 mph15.4 kmh 29.80 in1009.1 mb 0.00 in0.0 mm 0.00 in0.0 mm 0.07 in1.8 mm
11:40 AM 61.2°F16.2°C 51.8°F11.0°C 68% 5.3 mph S8.5 kmh S 8.7 mph14.0 kmh 29.80 in1009.1 mb 0.00 in0.0 mm 0.00 in0.0 mm 0.07 in1.8 mm
11:35 AM 61.0°F16.1°C 50.0°F10.0°C 69% 4.5 mph S7.2 kmh S 7.8 mph12.6 kmh 29.80 in1009.1 mb 0.00 in0.0 mm 0.00 in0.0 mm 0.07 in1.8 mm
11:30 AM 60.8°F16.0°C 50.0°F10.0°C 69% 5.0 mph SSW8.0 kmh SSW 11.0 mph17.7 kmh 29.80 in1009.1 mb 0.00 in0.0 mm 0.00 in0.0 mm 0.07 in1.8 mm
11:25 AM 60.6°F15.9°C 50.0°F10.0°C 69% 5.2 mph SSW8.4 kmh SSW 11.0 mph17.7 kmh 29.80 in1009.1 mb 0.00 in0.0 mm 0.00 in0.0 mm 0.07 in1.8 mm
11:20 AM 60.6°F15.9°C 50.0°F10.0°C 69% 5.7 mph SSW9.2 kmh SSW 8.5 mph13.7 kmh 29.80 in1009.1 mb 0.00 in0.0 mm 0.00 in0.0 mm 0.07 in1.8 mm
11:15 AM 60.6°F15.9°C 50.0°F10.0°C 69% 5.9 mph SSW9.5 kmh SSW 8.5 mph13.7 kmh 29.80 in1009.1 mb 0.00 in0.0 mm 0.00 in0.0 mm 0.07 in1.8 mm
11:10 AM 60.4°F15.8°C 50.0°F10.0°C 70% 5.5 mph SSW8.9 kmh SSW 11.9 mph19.2 kmh 29.80 in1009.1 mb 0.00 in0.0 mm 0.00 in0.0 mm 0.07 in1.8 mm
11:05 AM 60.4°F15.8°C 50.0°F10.0°C 70% 6.1 mph S9.8 kmh S 11.9 mph19.2 kmh 29.80 in1009.1 mb 0.00 in0.0 mm 0.00 in0.0 mm 0.07 in1.8 mm
11:00 AM 60.3°F15.7°C 50.0°F10.0°C 70% 5.7 mph S9.2 kmh S 11.4 mph18.3 kmh 29.80 in1009.1 mb 0.00 in0.0 mm 0.00 in0.0 mm 0.07 in1.8 mm
10:55 AM 60.3°F15.7°C 51.8°F11.0°C 71% 4.6 mph S7.4 kmh S 6.3 mph10.1 kmh 29.80 in1009.1 mb 0.00 in0.0 mm 0.00 in0.0 mm 0.07 in1.8 mm
10:50 AM 60.1°F15.6°C 50.0°F10.0°C 70% 5.2 mph S8.4 kmh S 7.4 mph11.9 kmh 29.80 in1009.1 mb 0.00 in0.0 mm 0.00 in0.0 mm 0.07 in1.8 mm
10:45 AM 60.1°F15.6°C 51.8°F11.0°C 71% 4.6 mph SSW7.4 kmh SSW 7.4 mph11.9 kmh 29.80 in1009.1 mb 0.00 in0.0 mm 0.00 in0.0 mm 0.07 in1.8 mm
10:40 AM 59.9°F15.5°C 51.8°F11.0°C 72% 4.3 mph S6.9 kmh S 7.4 mph11.9 kmh 29.80 in1009.1 mb 0.07 in1.8 mm 0.00 in0.0 mm 0.07 in1.8 mm
10:35 AM 59.9°F15.5°C 51.8°F11.0°C 71% 5.2 mph S8.4 kmh S 10.7 mph17.2 kmh 29.80 in1009.1 mb 0.07 in1.8 mm 0.00 in0.0 mm 0.07 in1.8 mm
10:30 AM 59.7°F15.4°C 50.0°F10.0°C 71% 5.4 mph S8.7 kmh S 10.7 mph17.2 kmh 29.80 in1009.1 mb 0.07 in1.8 mm 0.00 in0.0 mm 0.07 in1.8 mm
10:25 AM 59.7°F15.4°C 51.8°F11.0°C 72% 4.5 mph S7.2 kmh S 7.2 mph11.6 kmh 29.80 in1009.1 mb 0.07 in1.8 mm 0.00 in0.0 mm 0.07 in1.8 mm
10:20 AM 59.7°F15.4°C 51.8°F11.0°C 72% 4.4 mph S7.1 kmh S 7.2 mph11.6 kmh 29.80 in1009.1 mb 0.07 in1.8 mm 0.00 in0.0 mm 0.07 in1.8 mm
10:15 AM 59.5°F15.3°C 51.8°F11.0°C 73% 4.8 mph SSW7.7 kmh SSW 7.8 mph12.6 kmh 29.80 in1009.1 mb 0.07 in1.8 mm 0.00 in0.0 mm 0.07 in1.8 mm
10:10 AM 59.4°F15.2°C 51.8°F11.0°C 73% 4.7 mph S7.6 kmh S 7.8 mph12.6 kmh 29.80 in1009.1 mb 0.07 in1.8 mm 0.00 in0.0 mm 0.07 in1.8 mm
10:05 AM 59.4°F15.2°C 51.8°F11.0°C 73% 4.2 mph SSW6.8 kmh SSW 7.8 mph12.6 kmh 29.80 in1009.1 mb 0.07 in1.8 mm 0.00 in0.0 mm 0.07 in1.8 mm
10:00 AM 59.2°F15.1°C 51.8°F11.0°C 74% 4.4 mph SW7.1 kmh SW 8.1 mph13.0 kmh 29.80 in1009.1 mb 0.07 in1.8 mm 0.00 in0.0 mm 0.07 in1.8 mm
09:55 AM 59.2°F15.1°C 51.8°F11.0°C 74% 4.5 mph SW7.2 kmh SW 8.1 mph13.0 kmh 29.80 in1009.1 mb 0.07 in1.8 mm 0.00 in0.0 mm 0.07 in1.8 mm
09:50 AM 59.0°F15.0°C 50.0°F10.0°C 73% 5.4 mph SSW8.7 kmh SSW 7.8 mph12.6 kmh 29.80 in1009.1 mb 0.07 in1.8 mm 0.00 in0.0 mm 0.07 in1.8 mm
09:45 AM 58.8°F14.9°C 51.8°F11.0°C 74% 5.8 mph SSW9.3 kmh SSW 7.8 mph12.6 kmh 29.80 in1009.1 mb 0.07 in1.8 mm 0.84 in21.3 mm 0.07 in1.8 mm
09:40 AM 58.8°F14.9°C 51.8°F11.0°C 74% 4.9 mph S7.9 kmh S 8.5 mph13.7 kmh 29.80 in1009.1 mb 0.00 in0.0 mm 0.00 in0.0 mm 0.00 in0.0 mm
09:35 AM 58.8°F14.9°C 51.8°F11.0°C 75% 4.6 mph S7.4 kmh S 8.5 mph13.7 kmh 29.80 in1009.1 mb 0.00 in0.0 mm 0.00 in0.0 mm 0.00 in0.0 mm
09:30 AM 58.6°F14.8°C 51.8°F11.0°C 75% 4.8 mph S7.7 kmh S 7.6 mph12.2 kmh 29.80 in1009.1 mb 0.00 in0.0 mm 0.00 in0.0 mm 0.00 in0.0 mm
09:25 AM 58.6°F14.8°C 51.8°F11.0°C 75% 4.8 mph S7.7 kmh S 5.8 mph9.3 kmh 29.80 in1009.1 mb 0.00 in0.0 mm 0.00 in0.0 mm 0.00 in0.0 mm
09:20 AM 58.6°F14.8°C 51.8°F11.0°C 75% 4.4 mph SSW7.1 kmh SSW 5.8 mph9.3 kmh 29.80 in1009.1 mb 0.00 in0.0 mm 0.00 in0.0 mm 0.00 in0.0 mm
09:15 AM 58.5°F14.7°C 51.8°F11.0°C 75% 4.2 mph SSW6.8 kmh SSW 5.4 mph8.7 kmh 29.80 in1009.1 mb 0.00 in0.0 mm 0.00 in0.0 mm 0.00 in0.0 mm
09:10 AM 58.5°F14.7°C 51.8°F11.0°C 75% 3.3 mph SSW5.3 kmh SSW 5.8 mph9.3 kmh 29.80 in1009.1 mb 0.00 in0.0 mm 0.00 in0.0 mm 0.00 in0.0 mm
09:05 AM 58.5°F14.7°C 51.8°F11.0°C 75% 3.6 mph S5.8 kmh S 6.0 mph9.7 kmh 29.80 in1009.1 mb 0.00 in0.0 mm 0.00 in0.0 mm 0.00 in0.0 mm
09:00 AM 58.5°F14.7°C 51.8°F11.0°C 76% 4.6 mph SSW7.4 kmh SSW 7.8 mph12.6 kmh 29.80 in1009.1 mb 0.00 in0.0 mm 0.00 in0.0 mm 0.00 in0.0 mm
08:55 AM 58.5°F14.7°C 51.8°F11.0°C 76% 4.8 mph SW7.7 kmh SW 7.8 mph12.6 kmh 29.80 in1009.1 mb 0.00 in0.0 mm 0.00 in0.0 mm 0.00 in0.0 mm
08:50 AM 58.5°F14.7°C 51.8°F11.0°C 76% 4.4 mph SW7.1 kmh SW 7.4 mph11.9 kmh 29.80 in1009.1 mb 0.00 in0.0 mm 0.00 in0.0 mm 0.00 in0.0 mm
08:45 AM 58.5°F14.7°C 51.8°F11.0°C 75% 4.4 mph SSW7.1 kmh SSW 9.6 mph15.4 kmh 29.80 in1009.1 mb 0.00 in0.0 mm 0.00 in0.0 mm 0.00 in0.0 mm
08:40 AM 58.5°F14.7°C 51.8°F11.0°C 75% 5.0 mph SW8.0 kmh SW 10.3 mph16.6 kmh 29.80 in1009.1 mb 0.00 in0.0 mm 0.00 in0.0 mm 0.00 in0.0 mm
08:35 AM 58.5°F14.7°C 51.8°F11.0°C 76% 4.7 mph SW7.6 kmh SW 10.3 mph16.6 kmh 29.80 in1009.1 mb 0.00 in0.0 mm 0.00 in0.0 mm 0.00 in0.0 mm
08:30 AM 58.5°F14.7°C 51.8°F11.0°C 76% 4.1 mph SW6.6 kmh SW 7.6 mph12.2 kmh 29.80 in1009.1 mb 0.00 in0.0 mm 0.00 in0.0 mm 0.00 in0.0 mm
08:25 AM 58.3°F14.6°C 51.8°F11.0°C 76% 4.0 mph SSW6.4 kmh SSW 7.6 mph12.2 kmh 29.80 in1009.1 mb 0.00 in0.0 mm 0.00 in0.0 mm 0.00 in0.0 mm
08:20 AM 58.3°F14.6°C 51.8°F11.0°C 76% 3.9 mph S6.3 kmh S 6.5 mph10.5 kmh 29.80 in1009.1 mb 0.00 in0.0 mm 0.00 in0.0 mm 0.00 in0.0 mm
08:15 AM 58.1°F14.5°C 51.8°F11.0°C 76% 4.0 mph S6.4 kmh S 6.5 mph10.5 kmh 29.80 in1009.1 mb 0.00 in0.0 mm 0.00 in0.0 mm 0.00 in0.0 mm
08:10 AM 58.1°F14.5°C 51.8°F11.0°C 76% 3.3 mph S5.3 kmh S 4.9 mph7.9 kmh 29.80 in1009.1 mb 0.00 in0.0 mm 0.00 in0.0 mm 0.00 in0.0 mm
08:05 AM 58.1°F14.5°C 51.8°F11.0°C 76% 3.7 mph S6.0 kmh S 5.8 mph9.3 kmh 29.80 in1009.1 mb 0.00 in0.0 mm 0.00 in0.0 mm 0.00 in0.0 mm
08:00 AM 58.1°F14.5°C 51.8°F11.0°C 76% 3.7 mph S6.0 kmh S 5.8 mph9.3 kmh 29.80 in1009.1 mb 0.00 in0.0 mm 0.00 in0.0 mm 0.00 in0.0 mm
07:55 AM 58.1°F14.5°C 51.8°F11.0°C 76% 2.9 mph S4.7 kmh S 5.6 mph9.0 kmh 29.80 in1009.1 mb 0.00 in0.0 mm 0.00 in0.0 mm 0.00 in0.0 mm
07:50 AM 58.3°F14.6°C 51.8°F11.0°C 75% 2.9 mph S4.7 kmh S 6.0 mph9.7 kmh 29.80 in1009.1 mb 0.00 in0.0 mm 0.00 in0.0 mm 0.00 in0.0 mm
07:45 AM 58.3°F14.6°C 50.0°F10.0°C 74% 3.5 mph S5.6 kmh S 6.3 mph10.1 kmh 29.80 in1009.1 mb 0.00 in0.0 mm 0.00 in0.0 mm 0.00 in0.0 mm
07:40 AM 58.3°F14.6°C 50.0°F10.0°C 74% 3.4 mph S5.5 kmh S 6.3 mph10.1 kmh 29.80 in1009.1 mb 0.00 in0.0 mm 0.00 in0.0 mm 0.00 in0.0 mm
07:35 AM 58.3°F14.6°C 50.0°F10.0°C 74% 3.2 mph S5.1 kmh S 7.4 mph11.9 kmh 29.80 in1009.1 mb 0.00 in0.0 mm 0.00 in0.0 mm 0.00 in0.0 mm
07:30 AM 58.3°F14.6°C 50.0°F10.0°C 74% 3.7 mph S6.0 kmh S 7.4 mph11.9 kmh 29.80 in1009.1 mb 0.00 in0.0 mm 0.00 in0.0 mm 0.00 in0.0 mm
07:25 AM 58.3°F14.6°C 50.0°F10.0°C 74% 3.3 mph S5.3 kmh S 5.4 mph8.7 kmh 29.80 in1009.1 mb 0.00 in0.0 mm 0.00 in0.0 mm 0.00 in0.0 mm
07:20 AM 58.3°F14.6°C 50.0°F10.0°C 74% 3.8 mph SW6.1 kmh SW 7.4 mph11.9 kmh 29.80 in1009.1 mb 0.00 in0.0 mm 0.00 in0.0 mm 0.00 in0.0 mm
07:15 AM 58.1°F14.5°C 50.0°F10.0°C 74% 4.6 mph S7.4 kmh S 7.4 mph11.9 kmh 29.80 in1009.1 mb 0.00 in0.0 mm 0.00 in0.0 mm 0.00 in0.0 mm
07:10 AM 58.1°F14.5°C 50.0°F10.0°C 74% 3.9 mph S6.3 kmh S 6.5 mph10.5 kmh 29.80 in1009.1 mb 0.00 in0.0 mm 0.00 in0.0 mm 0.00 in0.0 mm
07:05 AM 58.1°F14.5°C 51.8°F11.0°C 75% 3.0 mph S4.8 kmh S 4.9 mph7.9 kmh 29.80 in1009.1 mb 0.00 in0.0 mm 0.00 in0.0 mm 0.00 in0.0 mm
07:00 AM 58.1°F14.5°C 51.8°F11.0°C 75% 3.1 mph S5.0 kmh S 4.9 mph7.9 kmh 29.80 in1009.1 mb 0.00 in0.0 mm 0.00 in0.0 mm 0.00 in0.0 mm
06:55 AM 58.1°F14.5°C 51.8°F11.0°C 75% 3.0 mph S4.8 kmh S 4.9 mph7.9 kmh 29.80 in1009.1 mb 0.00 in0.0 mm 0.00 in0.0 mm 0.00 in0.0 mm
06:50 AM 57.9°F14.4°C 50.0°F10.0°C 75% 2.7 mph S4.3 kmh S 3.8 mph6.1 kmh 29.80 in1009.1 mb 0.00 in0.0 mm 0.00 in0.0 mm 0.00 in0.0 mm
06:45 AM 57.9°F14.4°C 50.0°F10.0°C 75% 2.6 mph S4.2 kmh S 4.9 mph7.9 kmh 29.80 in1009.1 mb 0.00 in0.0 mm 0.00 in0.0 mm 0.00 in0.0 mm
06:40 AM 57.9°F14.4°C 50.0°F10.0°C 76% 3.2 mph SSW5.1 kmh SSW 6.0 mph9.7 kmh 29.80 in1009.1 mb 0.00 in0.0 mm 0.00 in0.0 mm 0.00 in0.0 mm
06:35 AM 57.9°F14.4°C 50.0°F10.0°C 76% 4.1 mph SSW6.6 kmh SSW 11.0 mph17.7 kmh 29.80 in1009.1 mb 0.00 in0.0 mm 0.00 in0.0 mm 0.00 in0.0 mm
06:30 AM 57.9°F14.4°C 50.0°F10.0°C 76% 3.3 mph S5.3 kmh S 11.0 mph17.7 kmh 29.80 in1009.1 mb 0.00 in0.0 mm 0.00 in0.0 mm 0.00 in0.0 mm
06:25 AM 57.9°F14.4°C 50.0°F10.0°C 76% 3.3 mph S5.3 kmh S 5.6 mph9.0 kmh 29.80 in1009.1 mb 0.00 in0.0 mm 0.00 in0.0 mm 0.00 in0.0 mm
06:20 AM 57.9°F14.4°C 50.0°F10.0°C 76% 4.1 mph SSW6.6 kmh SSW 5.8 mph9.3 kmh 29.80 in1009.1 mb 0.00 in0.0 mm 0.00 in0.0 mm 0.00 in0.0 mm
06:15 AM 57.9°F14.4°C 50.0°F10.0°C 76% 3.8 mph SSW6.1 kmh SSW 5.8 mph9.3 kmh 29.80 in1009.1 mb 0.00 in0.0 mm 0.00 in0.0 mm 0.00 in0.0 mm
06:10 AM 57.9°F14.4°C 50.0°F10.0°C 75% 3.3 mph SSW5.3 kmh SSW 7.2 mph11.6 kmh 29.80 in1009.1 mb 0.00 in0.0 mm 0.00 in0.0 mm 0.00 in0.0 mm
06:05 AM 57.9°F14.4°C 50.0°F10.0°C 76% 3.5 mph S5.6 kmh S 7.2 mph11.6 kmh 29.80 in1009.1 mb 0.00 in0.0 mm 0.00 in0.0 mm 0.00 in0.0 mm
06:00 AM 57.9°F14.4°C 50.0°F10.0°C 75% 2.8 mph SSW4.5 kmh SSW 4.9 mph7.9 kmh 29.80 in1009.1 mb 0.00 in0.0 mm 0.00 in0.0 mm 0.00 in0.0 mm
05:55 AM 57.7°F14.3°C 50.0°F10.0°C 75% 2.2 mph S3.5 kmh S 3.6 mph5.8 kmh 29.80 in1009.1 mb 0.00 in0.0 mm 0.00 in0.0 mm 0.00 in0.0 mm
05:50 AM 57.7°F14.3°C 50.0°F10.0°C 75% 2.1 mph S3.4 kmh S 4.7 mph7.6 kmh 29.80 in1009.1 mb 0.00 in0.0 mm 0.00 in0.0 mm 0.00 in0.0 mm
05:45 AM 57.7°F14.3°C 50.0°F10.0°C 74% 2.5 mph S4.0 kmh S 4.7 mph7.6 kmh 29.80 in1009.1 mb 0.00 in0.0 mm 0.00 in0.0 mm 0.00 in0.0 mm
05:40 AM 57.7°F14.3°C 50.0°F10.0°C 74% 1.9 mph S3.1 kmh S 3.4 mph5.5 kmh 29.80 in1009.1 mb 0.00 in0.0 mm 0.00 in0.0 mm 0.00 in0.0 mm
05:35 AM 57.7°F14.3°C 50.0°F10.0°C 74% 1.3 mph S2.1 kmh S 3.4 mph5.5 kmh 29.80 in1009.1 mb 0.00 in0.0 mm 0.00 in0.0 mm 0.00 in0.0 mm
05:30 AM 57.7°F14.3°C 50.0°F10.0°C 74% 1.6 mph S2.6 kmh S 3.6 mph5.8 kmh 29.80 in1009.1 mb 0.00 in0.0 mm 0.00 in0.0 mm 0.00 in0.0 mm
05:25 AM 57.7°F14.3°C 50.0°F10.0°C 75% 2.1 mph S3.4 kmh S 4.0 mph6.4 kmh 29.80 in1009.1 mb 0.00 in0.0 mm 0.00 in0.0 mm 0.00 in0.0 mm
05:20 AM 57.6°F14.2°C 50.0°F10.0°C 75% 2.7 mph S4.3 kmh S 4.0 mph6.4 kmh 29.80 in1009.1 mb 0.00 in0.0 mm 0.00 in0.0 mm 0.00 in0.0 mm
05:15 AM 57.6°F14.2°C 50.0°F10.0°C 75% 2.5 mph S4.0 kmh S 3.8 mph6.1 kmh 29.80 in1009.1 mb 0.00 in0.0 mm 0.00 in0.0 mm 0.00 in0.0 mm
05:10 AM 57.6°F14.2°C 50.0°F10.0°C 75% 2.6 mph S4.2 kmh S 4.9 mph7.9 kmh 29.80 in1009.1 mb 0.00 in0.0 mm 0.00 in0.0 mm 0.00 in0.0 mm
05:05 AM 57.6°F14.2°C 50.0°F10.0°C 75% 3.1 mph SSW5.0 kmh SSW 6.5 mph10.5 kmh 29.80 in1009.1 mb 0.00 in0.0 mm 0.00 in0.0 mm 0.00 in0.0 mm
05:00 AM 57.6°F14.2°C 50.0°F10.0°C 75% 2.9 mph SW4.7 kmh SW 6.5 mph10.5 kmh 29.80 in1009.1 mb 0.00 in0.0 mm 0.00 in0.0 mm 0.00 in0.0 mm
04:55 AM 57.6°F14.2°C 50.0°F10.0°C 75% 2.4 mph S3.9 kmh S 3.6 mph5.8 kmh 29.80 in1009.1 mb 0.00 in0.0 mm 0.00 in0.0 mm 0.00 in0.0 mm
04:50 AM 57.6°F14.2°C 50.0°F10.0°C 75% 2.7 mph SE4.3 kmh SE 4.3 mph6.9 kmh 29.80 in1009.1 mb 0.00 in0.0 mm 0.00 in0.0 mm 0.00 in0.0 mm
04:45 AM 57.6°F14.2°C 50.0°F10.0°C 75% 3.0 mph S4.8 kmh S 4.3 mph6.9 kmh 29.83 in1010.2 mb 0.00 in0.0 mm 0.00 in0.0 mm 0.00 in0.0 mm
04:40 AM 57.6°F14.2°C 50.0°F10.0°C 75% 3.1 mph SSW5.0 kmh SSW 4.0 mph6.4 kmh 29.83 in1010.2 mb 0.00 in0.0 mm 0.00 in0.0 mm 0.00 in0.0 mm
04:35 AM 57.6°F14.2°C 50.0°F10.0°C 74% 3.2 mph SSW5.1 kmh SSW 4.0 mph6.4 kmh 29.83 in1010.2 mb 0.00 in0.0 mm 0.00 in0.0 mm 0.00 in0.0 mm
04:30 AM 57.6°F14.2°C 50.0°F10.0°C 74% 2.8 mph SSW4.5 kmh SSW 4.0 mph6.4 kmh 29.83 in1010.2 mb 0.00 in0.0 mm 0.00 in0.0 mm 0.00 in0.0 mm
04:25 AM 57.6°F14.2°C 50.0°F10.0°C 73% 2.0 mph SSW3.2 kmh SSW 3.4 mph5.5 kmh 29.83 in1010.2 mb 0.00 in0.0 mm 0.00 in0.0 mm 0.00 in0.0 mm
04:20 AM 57.6°F14.2°C 50.0°F10.0°C 73% 1.7 mph SSW2.7 kmh SSW 3.4 mph5.5 kmh 29.83 in1010.2 mb 0.00 in0.0 mm 0.00 in0.0 mm 0.00 in0.0 mm
04:15 AM 57.6°F14.2°C 50.0°F10.0°C 73% 1.4 mph SSW2.3 kmh SSW 3.4 mph5.5 kmh 29.80 in1009.1 mb 0.00 in0.0 mm 0.00 in0.0 mm 0.00 in0.0 mm
04:10 AM 57.4°F14.1°C 48.2°F9.0°C 72% 1.2 mph SSE1.9 kmh SSE 2.9 mph4.7 kmh 29.80 in1009.1 mb 0.00 in0.0 mm 0.00 in0.0 mm 0.00 in0.0 mm
04:05 AM 57.4°F14.1°C 48.2°F9.0°C 72% 1.1 mph SSE1.8 kmh SSE 2.9 mph4.7 kmh 29.80 in1009.1 mb 0.00 in0.0 mm 0.00 in0.0 mm 0.00 in0.0 mm
04:00 AM 57.4°F14.1°C 48.2°F9.0°C 72% 1.0 mph S1.6 kmh S 2.2 mph3.5 kmh 29.80 in1009.1 mb 0.00 in0.0 mm 0.00 in0.0 mm 0.00 in0.0 mm
03:55 AM 57.4°F14.1°C 48.2°F9.0°C 73% 1.6 mph S2.6 kmh S 3.1 mph5.0 kmh 29.80 in1009.1 mb 0.00 in0.0 mm 0.00 in0.0 mm 0.00 in0.0 mm
03:50 AM 57.4°F14.1°C 48.2°F9.0°C 73% 1.8 mph SSW2.9 kmh SSW 3.1 mph5.0 kmh 29.80 in1009.1 mb 0.00 in0.0 mm 0.00 in0.0 mm 0.00 in0.0 mm
03:45 AM 57.4°F14.1°C 48.2°F9.0°C 73% 1.8 mph S2.9 kmh S 3.8 mph6.1 kmh 29.83 in1010.2 mb 0.00 in0.0 mm 0.00 in0.0 mm 0.00 in0.0 mm
03:40 AM 57.4°F14.1°C 48.2°F9.0°C 73% 2.4 mph S3.9 kmh S 3.8 mph6.1 kmh 29.83 in1010.2 mb 0.00 in0.0 mm 0.00 in0.0 mm 0.00 in0.0 mm
03:35 AM 57.4°F14.1°C 48.2°F9.0°C 73% 2.0 mph S3.2 kmh S 3.8 mph6.1 kmh 29.83 in1010.2 mb 0.00 in0.0 mm 0.00 in0.0 mm 0.00 in0.0 mm
03:30 AM 57.4°F14.1°C 48.2°F9.0°C 72% 1.5 mph S2.4 kmh S 3.1 mph5.0 kmh 29.83 in1010.2 mb 0.00 in0.0 mm 0.00 in0.0 mm 0.00 in0.0 mm
03:25 AM 57.4°F14.1°C 48.2°F9.0°C 73% 1.3 mph SSE2.1 kmh SSE 2.7 mph4.3 kmh 29.83 in1010.2 mb 0.00 in0.0 mm 0.00 in0.0 mm 0.00 in0.0 mm
03:20 AM 57.4°F14.1°C 48.2°F9.0°C 73% 1.6 mph S2.6 kmh S 3.4 mph5.5 kmh 29.83 in1010.2 mb 0.00 in0.0 mm 0.00 in0.0 mm 0.00 in0.0 mm
03:15 AM 57.4°F14.1°C 48.2°F9.0°C 73% 2.4 mph SSW3.9 kmh SSW 4.7 mph7.6 kmh 29.83 in1010.2 mb 0.00 in0.0 mm 0.00 in0.0 mm 0.00 in0.0 mm
03:10 AM 57.4°F14.1°C 48.2°F9.0°C 73% 2.2 mph S3.5 kmh S 5.4 mph8.7 kmh 29.83 in1010.2 mb 0.00 in0.0 mm 0.00 in0.0 mm 0.00 in0.0 mm
03:05 AM 57.4°F14.1°C 48.2°F9.0°C 73% 1.9 mph S3.1 kmh S 5.4 mph8.7 kmh 29.83 in1010.2 mb 0.00 in0.0 mm 0.00 in0.0 mm 0.00 in0.0 mm
03:00 AM 57.4°F14.1°C 48.2°F9.0°C 73% 2.0 mph S3.2 kmh S 3.6 mph5.8 kmh 29.83 in1010.2 mb 0.00 in0.0 mm 0.00 in0.0 mm 0.00 in0.0 mm
02:55 AM 57.2°F14.0°C 48.2°F9.0°C 73% 2.1 mph S3.4 kmh S 3.6 mph5.8 kmh 29.83 in1010.2 mb 0.00 in0.0 mm 0.00 in0.0 mm 0.00 in0.0 mm
02:50 AM 57.4°F14.1°C 48.2°F9.0°C 73% 1.8 mph S2.9 kmh S 3.1 mph5.0 kmh 29.83 in1010.2 mb 0.00 in0.0 mm 0.00 in0.0 mm 0.00 in0.0 mm
02:45 AM 57.4°F14.1°C 48.2°F9.0°C 72% 1.7 mph S2.7 kmh S 3.6 mph5.8 kmh 29.83 in1010.2 mb 0.00 in0.0 mm 0.00 in0.0 mm 0.00 in0.0 mm
02:40 AM 57.4°F14.1°C 48.2°F9.0°C 72% 2.2 mph S3.5 kmh S 4.9 mph7.9 kmh 29.83 in1010.2 mb 0.00 in0.0 mm 0.00 in0.0 mm 0.00 in0.0 mm
02:35 AM 57.4°F14.1°C 48.2°F9.0°C 71% 1.8 mph SSW2.9 kmh SSW 4.9 mph7.9 kmh 29.83 in1010.2 mb 0.00 in0.0 mm 0.00 in0.0 mm 0.00 in0.0 mm
02:30 AM 57.4°F14.1°C 48.2°F9.0°C 70% 1.6 mph SSW2.6 kmh SSW 4.9 mph7.9 kmh 29.83 in1010.2 mb 0.00 in0.0 mm 0.00 in0.0 mm 0.00 in0.0 mm
02:25 AM 57.4°F14.1°C 48.2°F9.0°C 70% 2.2 mph SW3.5 kmh SW 4.9 mph7.9 kmh 29.83 in1010.2 mb 0.00 in0.0 mm 0.00 in0.0 mm 0.00 in0.0 mm
02:20 AM 57.4°F14.1°C 48.2°F9.0°C 70% 2.4 mph SSW3.9 kmh SSW 4.9 mph7.9 kmh 29.83 in1010.2 mb 0.00 in0.0 mm 0.00 in0.0 mm 0.00 in0.0 mm
02:15 AM 57.6°F14.2°C 48.2°F9.0°C 70% 1.6 mph S2.6 kmh S 2.9 mph4.7 kmh 29.83 in1010.2 mb 0.00 in0.0 mm 0.00 in0.0 mm 0.00 in0.0 mm
02:10 AM 57.6°F14.2°C 48.2°F9.0°C 70% 1.5 mph SSW2.4 kmh SSW 3.1 mph5.0 kmh 29.83 in1010.2 mb 0.00 in0.0 mm 0.00 in0.0 mm 0.00 in0.0 mm
02:05 AM 57.6°F14.2°C 48.2°F9.0°C 70% 1.6 mph SW2.6 kmh SW 3.1 mph5.0 kmh 29.83 in1010.2 mb 0.00 in0.0 mm 0.00 in0.0 mm 0.00 in0.0 mm
02:00 AM 57.6°F14.2°C 48.2°F9.0°C 71% 2.3 mph SSW3.7 kmh SSW 4.7 mph7.6 kmh 29.83 in1010.2 mb 0.00 in0.0 mm 0.00 in0.0 mm 0.00 in0.0 mm
01:55 AM 57.6°F14.2°C 48.2°F9.0°C 71% 2.2 mph SSW3.5 kmh SSW 4.7 mph7.6 kmh 29.83 in1010.2 mb 0.00 in0.0 mm 0.00 in0.0 mm 0.00 in0.0 mm
01:50 AM 57.6°F14.2°C 48.2°F9.0°C 69% 1.7 mph S2.7 kmh S 3.1 mph5.0 kmh 29.83 in1010.2 mb 0.00 in0.0 mm 0.00 in0.0 mm 0.00 in0.0 mm
01:45 AM 57.6°F14.2°C 48.2°F9.0°C 70% 1.7 mph SSE2.7 kmh SSE 3.1 mph5.0 kmh 29.83 in1010.2 mb 0.00 in0.0 mm 0.00 in0.0 mm 0.00 in0.0 mm
01:40 AM 57.7°F14.3°C 48.2°F9.0°C 70% 1.5 mph S2.4 kmh S 2.9 mph4.7 kmh 29.83 in1010.2 mb 0.00 in0.0 mm 0.00 in0.0 mm 0.00 in0.0 mm
01:35 AM 57.7°F14.3°C 48.2°F9.0°C 70% 1.7 mph SW2.7 kmh SW 3.8 mph6.1 kmh 29.83 in1010.2 mb 0.00 in0.0 mm 0.00 in0.0 mm 0.00 in0.0 mm
01:30 AM 57.7°F14.3°C 48.2°F9.0°C 69% 2.2 mph SW3.5 kmh SW 3.8 mph6.1 kmh 29.83 in1010.2 mb 0.00 in0.0 mm 0.00 in0.0 mm 0.00 in0.0 mm
01:25 AM 57.7°F14.3°C 48.2°F9.0°C 70% 2.4 mph SW3.9 kmh SW 3.8 mph6.1 kmh 29.83 in1010.2 mb 0.00 in0.0 mm 0.00 in0.0 mm 0.00 in0.0 mm
01:20 AM 57.7°F14.3°C 48.2°F9.0°C 69% 1.6 mph SW2.6 kmh SW 2.9 mph4.7 kmh 29.83 in1010.2 mb 0.00 in0.0 mm 0.00 in0.0 mm 0.00 in0.0 mm
01:15 AM 57.7°F14.3°C 48.2°F9.0°C 69% 2.0 mph SW3.2 kmh SW 4.0 mph6.4 kmh 29.83 in1010.2 mb 0.00 in0.0 mm 0.00 in0.0 mm 0.00 in0.0 mm
01:10 AM 57.9°F14.4°C 48.2°F9.0°C 68% 2.3 mph SW3.7 kmh SW 4.0 mph6.4 kmh 29.83 in1010.2 mb 0.00 in0.0 mm 0.00 in0.0 mm 0.00 in0.0 mm
01:05 AM 57.9°F14.4°C 48.2°F9.0°C 69% 2.8 mph SW4.5 kmh SW 5.6 mph9.0 kmh 29.83 in1010.2 mb 0.00 in0.0 mm 0.00 in0.0 mm 0.00 in0.0 mm
01:00 AM 57.9°F14.4°C 48.2°F9.0°C 69% 3.4 mph SSW5.5 kmh SSW 6.3 mph10.1 kmh 29.83 in1010.2 mb 0.00 in0.0 mm 0.00 in0.0 mm 0.00 in0.0 mm
12:55 AM 57.9°F14.4°C 48.2°F9.0°C 69% 3.3 mph SSW5.3 kmh SSW 6.3 mph10.1 kmh 29.83 in1010.2 mb 0.00 in0.0 mm 0.00 in0.0 mm 0.00 in0.0 mm
12:50 AM 57.9°F14.4°C 48.2°F9.0°C 69% 3.0 mph SSW4.8 kmh SSW 5.6 mph9.0 kmh 29.83 in1010.2 mb 0.00 in0.0 mm 0.00 in0.0 mm 0.00 in0.0 mm
12:45 AM 57.9°F14.4°C 48.2°F9.0°C 69% 3.3 mph SW5.3 kmh SW 5.6 mph9.0 kmh 29.86 in1011.2 mb 0.00 in0.0 mm 0.00 in0.0 mm 0.00 in0.0 mm
12:40 AM 57.9°F14.4°C 48.2°F9.0°C 69% 3.8 mph SW6.1 kmh SW 6.3 mph10.1 kmh 29.86 in1011.2 mb 0.00 in0.0 mm 0.00 in0.0 mm 0.00 in0.0 mm
12:35 AM 57.9°F14.4°C 48.2°F9.0°C 69% 4.0 mph SSW6.4 kmh SSW 6.3 mph10.1 kmh 29.86 in1011.2 mb 0.00 in0.0 mm 0.00 in0.0 mm 0.00 in0.0 mm
12:30 AM 57.9°F14.4°C 48.2°F9.0°C 69% 3.5 mph SSW5.6 kmh SSW 4.3 mph6.9 kmh 29.83 in1010.2 mb 0.00 in0.0 mm 0.00 in0.0 mm 0.00 in0.0 mm
12:25 AM 57.9°F14.4°C 48.2°F9.0°C 68% 3.3 mph SW5.3 kmh SW 4.7 mph7.6 kmh 29.83 in1010.2 mb 0.00 in0.0 mm 0.00 in0.0 mm 0.00 in0.0 mm
12:20 AM 58.1°F14.5°C 48.2°F9.0°C 68% 3.1 mph SW5.0 kmh SW 4.7 mph7.6 kmh 29.83 in1010.2 mb 0.00 in0.0 mm 0.00 in0.0 mm 0.00 in0.0 mm
12:15 AM 58.1°F14.5°C 48.2°F9.0°C 68% 3.4 mph SW5.5 kmh SW 5.4 mph8.7 kmh 29.83 in1010.2 mb 0.00 in0.0 mm 0.00 in0.0 mm 0.00 in0.0 mm
12:10 AM 58.3°F14.6°C 48.2°F9.0°C 68% 3.5 mph SSW5.6 kmh SSW 5.4 mph8.7 kmh 29.86 in1011.2 mb 0.00 in0.0 mm 0.00 in0.0 mm 0.00 in0.0 mm
12:05 AM 58.3°F14.6°C 48.2°F9.0°C 68% 3.7 mph S6.0 kmh S 6.0 mph9.7 kmh 29.86 in1011.2 mb 0.00 in0.0 mm 0.00 in0.0 mm 0.00 in0.0 mm
12:00 AM 58.3°F14.6°C 48.2°F9.0°C 68% 4.4 mph S7.1 kmh S 6.0 mph9.7 kmh 29.86 in1011.2 mb 0.00 in0.0 mm 0.00 in0.0 mm 0.00 in0.0 mm